Time;durP1;ratioP1;P1;durP2;ratioP2;P2;SDS_P1;SDS_P2;PMS_P1;PMS_P2;Temp;Humidity;BMP_temperature;BMP_pressure;BME280_temperature;BME280_humidity;BME280_pressure;Samples;Min_cycle;Max_cycle;Signal;HPM_P1;HPM_P2
2021/10/26 00:00:37;;;;;;;61.10;6.68;;;10.30;74.80;;;;;;5052784;28;20032;-66
2021/10/26 00:03:03;;;;;;;43.45;6.15;;;10.30;74.90;;;;;;5050810;28;20040;-66
2021/10/26 00:05:28;;;;;;;71.97;6.95;;;10.40;74.90;;;;;;5045823;28;20076;-66
2021/10/26 00:07:54;;;;;;;86.70;7.28;;;10.40;74.80;;;;;;5050551;28;20021;-66
2021/10/26 00:10:20;;;;;;;108.95;9.10;;;10.40;74.80;;;;;;5051050;28;20029;-66
2021/10/26 00:12:46;;;;;;;100.53;8.57;;;10.40;74.80;;;;;;5052455;28;20021;-66
2021/10/26 00:15:12;;;;;;;88.78;8.70;;;10.40;75.00;;;;;;5044747;28;20067;-66
2021/10/26 00:17:37;;;;;;;102.53;8.63;;;10.40;75.10;;;;;;5051623;28;20036;-66
2021/10/26 00:20:06;;;;;;;84.00;8.68;;;10.50;75.20;;;;;;5049084;28;20037;-66
2021/10/26 00:22:31;;;;;;;90.07;8.68;;;10.50;75.20;;;;;;5051253;28;20025;-66
2021/10/26 00:24:57;;;;;;;102.05;10.25;;;10.50;75.30;;;;;;5036564;28;20056;-66
2021/10/26 00:27:23;;;;;;;62.70;8.55;;;10.60;75.30;;;;;;5051363;28;20526;-66
2021/10/26 00:29:49;;;;;;;58.20;8.40;;;10.60;75.30;;;;;;5051780;28;20025;-66
2021/10/26 00:32:15;;;;;;;37.10;9.32;;;10.60;75.30;;;;;;5050653;28;20029;-66
2021/10/26 00:34:41;;;;;;;48.85;8.02;;;10.70;75.30;;;;;;5050632;28;20401;-66
2021/10/26 00:37:07;;;;;;;47.33;7.88;;;10.70;75.40;;;;;;5050397;28;20045;-66
2021/10/26 00:39:32;;;;;;;52.05;8.98;;;10.70;75.40;;;;;;5043020;28;20029;-66
2021/10/26 00:41:59;;;;;;;27.55;7.55;;;10.80;75.50;;;;;;5043005;28;20116;-66
2021/10/26 00:44:29;;;;;;;21.55;7.60;;;10.80;75.40;;;;;;5045799;28;20049;-66
2021/10/26 00:47:01;;;;;;;25.90;7.57;;;10.80;75.50;;;;;;5042124;28;20041;-66
2021/10/26 00:49:30;;;;;;;23.70;7.68;;;10.90;75.50;;;;;;5037557;28;20083;-66
2021/10/26 00:52:01;;;;;;;34.35;7.75;;;10.90;75.50;;;;;;5050538;28;20033;-66
2021/10/26 00:54:28;;;;;;;20.00;7.82;;;10.90;75.40;;;;;;5047542;28;20074;-66
2021/10/26 00:56:57;;;;;;;19.85;7.20;;;10.90;75.40;;;;;;5051066;28;20076;-66
2021/10/26 00:59:27;;;;;;;19.38;7.75;;;10.90;75.30;;;;;;5050650;28;20084;-66
2021/10/26 01:01:57;;;;;;;24.67;7.78;;;10.90;75.30;;;;;;5049812;28;20056;-66
2021/10/26 01:04:26;;;;;;;24.27;7.97;;;10.90;76.20;;;;;;5035550;28;20025;-66
2021/10/26 01:06:55;;;;;;;31.70;8.07;;;10.90;75.30;;;;;;5050791;28;20047;-66
2021/10/26 01:09:25;;;;;;;59.25;8.07;;;10.90;75.40;;;;;;5051228;28;20029;-66
2021/10/26 01:11:54;;;;;;;58.20;8.15;;;10.90;75.40;;;;;;5041525;28;20034;-66
2021/10/26 01:14:25;;;;;;;35.45;7.95;;;10.90;75.30;;;;;;5042991;28;20029;-66
2021/10/26 01:16:54;;;;;;;25.27;7.55;;;10.90;75.30;;;;;;5050019;28;20017;-66
2021/10/26 01:19:27;;;;;;;16.70;7.60;;;10.80;76.30;;;;;;5041332;28;20032;-66
2021/10/26 01:21:59;;;;;;;23.10;7.70;;;10.80;75.40;;;;;;5052948;28;20112;-66
2021/10/26 01:24:24;;;;;;;16.60;7.45;;;10.80;75.50;;;;;;5050985;28;20033;-66
2021/10/26 01:26:50;;;;;;;20.95;7.63;;;10.70;75.40;;;;;;5041525;28;20079;-66
2021/10/26 01:29:16;;;;;;;12.50;7.85;;;10.70;75.50;;;;;;5038735;28;20036;-66
2021/10/26 01:31:46;;;;;;;13.65;8.00;;;10.70;75.60;;;;;;5046187;28;20063;-66
2021/10/26 01:34:12;;;;;;;13.10;7.50;;;10.60;75.70;;;;;;5034648;28;20049;-66
2021/10/26 01:36:37;;;;;;;11.70;7.10;;;10.60;75.80;;;;;;5049844;28;20078;-66
2021/10/26 01:39:03;;;;;;;12.80;7.68;;;10.70;76.00;;;;;;5048170;28;20475;-66
2021/10/26 01:41:29;;;;;;;14.27;7.72;;;10.70;76.20;;;;;;5049815;28;20029;-66
2021/10/26 01:43:55;;;;;;;10.73;7.10;;;10.70;76.20;;;;;;5047647;28;20496;-66
2021/10/26 01:46:21;;;;;;;10.93;6.72;;;10.70;76.30;;;;;;5041684;28;20123;-66
2021/10/26 01:48:47;;;;;;;12.45;7.00;;;10.70;76.30;;;;;;5049312;28;20031;-66
2021/10/26 01:51:12;;;;;;;13.48;7.07;;;10.70;76.30;;;;;;5043515;28;20021;-66
2021/10/26 01:53:38;;;;;;;11.48;7.00;;;10.70;76.20;;;;;;5048845;28;20017;-66
2021/10/26 01:56:04;;;;;;;10.18;6.93;;;10.60;76.20;;;;;;5046790;28;20029;-66
2021/10/26 01:58:30;;;;;;;11.63;7.45;;;10.60;77.20;;;;;;5046656;28;20021;-66
2021/10/26 02:00:55;;;;;;;11.23;7.03;;;10.50;76.30;;;;;;5049674;28;20071;-66
2021/10/26 02:03:21;;;;;;;15.48;7.70;;;10.50;76.60;;;;;;5050046;28;20025;-66
2021/10/26 02:05:47;;;;;;;13.77;7.25;;;10.40;76.80;;;;;;5047375;28;20032;-66
2021/10/26 02:08:13;;;;;;;12.13;6.82;;;10.40;76.90;;;;;;5045455;28;20480;-66
2021/10/26 02:10:38;;;;;;;12.63;7.07;;;10.40;77.10;;;;;;5045674;28;20078;-66
2021/10/26 02:13:04;;;;;;;10.27;6.63;;;10.30;77.20;;;;;;5047297;28;20024;-66
2021/10/26 02:15:30;;;;;;;11.27;6.82;;;10.30;77.20;;;;;;5041548;28;20388;-66
2021/10/26 02:17:56;;;;;;;10.02;6.22;;;10.30;77.30;;;;;;5042046;28;20112;-66
2021/10/26 02:20:22;;;;;;;16.30;6.93;;;10.30;77.30;;;;;;5041471;28;20029;-66
2021/10/26 02:22:48;;;;;;;10.95;6.35;;;10.30;77.40;;;;;;5044552;28;20105;-66
2021/10/26 02:25:14;;;;;;;14.30;6.70;;;10.40;77.70;;;;;;5048356;28;20037;-66
2021/10/26 02:27:39;;;;;;;14.05;6.82;;;10.40;77.70;;;;;;5049157;28;20020;-66
2021/10/26 02:30:06;;;;;;;13.32;6.45;;;10.40;77.70;;;;;;5042317;28;20028;-66
2021/10/26 02:32:31;;;;;;;28.30;6.78;;;10.40;77.70;;;;;;5048393;28;20499;-66
2021/10/26 02:34:57;;;;;;;27.98;6.68;;;10.40;77.70;;;;;;5047995;28;20048;-66
2021/10/26 02:37:23;;;;;;;19.13;6.90;;;10.40;77.90;;;;;;5046920;28;20036;-66
2021/10/26 02:39:49;;;;;;;36.63;7.00;;;10.50;78.10;;;;;;5037217;28;20028;-66
2021/10/26 02:42:14;;;;;;;24.23;6.38;;;10.50;78.20;;;;;;5037750;28;20519;-66
2021/10/26 02:44:40;;;;;;;24.25;7.47;;;10.60;78.30;;;;;;5042789;28;20036;-66
2021/10/26 02:47:06;;;;;;;33.25;7.05;;;10.60;78.40;;;;;;5048039;28;20029;-66
2021/10/26 02:49:32;;;;;;;48.50;7.80;;;10.70;78.50;;;;;;5045816;28;20056;-66
2021/10/26 02:51:57;;;;;;;63.20;7.03;;;10.70;79.70;;;;;;5050891;28;20017;-66
2021/10/26 02:54:23;;;;;;;26.70;6.95;;;10.70;80.20;;;;;;5046774;28;20496;-66
2021/10/26 02:56:49;;;;;;;44.35;7.35;;;10.80;81.00;;;;;;5043444;28;20083;-66
2021/10/26 02:59:15;;;;;;;46.25;7.72;;;10.80;80.70;;;;;;5049829;28;20028;-66
2021/10/26 03:01:40;;;;;;;62.33;8.20;;;10.80;81.90;;;;;;5053259;28;20111;-66
2021/10/26 03:04:06;;;;;;;47.97;7.82;;;10.80;82.10;;;;;;5051604;28;20415;-66
2021/10/26 03:06:32;;;;;;;37.65;7.57;;;10.80;83.90;;;;;;5052083;28;20021;-66
2021/10/26 03:08:57;;;;;;;25.92;7.18;;;10.90;84.80;;;;;;5051353;28;20491;-66
2021/10/26 03:11:23;;;;;;;21.00;7.13;;;10.90;84.10;;;;;;5051529;28;20108;-66
2021/10/26 03:13:49;;;;;;;15.88;6.28;;;11.00;83.90;;;;;;5052046;28;20043;-66
2021/10/26 03:16:15;;;;;;;16.15;6.65;;;11.00;83.70;;;;;;5052555;28;20509;-67
2021/10/26 03:18:40;;;;;;;14.48;6.45;;;11.00;83.60;;;;;;5051108;28;20078;-66
2021/10/26 03:21:06;;;;;;;17.60;6.25;;;11.10;83.60;;;;;;5050967;28;20021;-66
2021/10/26 03:23:32;;;;;;;12.20;5.80;;;11.10;84.30;;;;;;5051437;28;20128;-66
2021/10/26 03:25:58;;;;;;;17.17;7.07;;;11.10;84.10;;;;;;5049496;28;20024;-66
2021/10/26 03:28:24;;;;;;;12.38;5.97;;;11.20;84.80;;;;;;5042052;28;20040;-66
2021/10/26 03:30:50;;;;;;;13.68;5.13;;;11.20;85.10;;;;;;5049672;28;20029;-66
2021/10/26 03:33:15;;;;;;;9.10;4.85;;;11.20;85.60;;;;;;5047919;28;20041;-66
2021/10/26 03:35:41;;;;;;;10.88;4.88;;;11.20;86.00;;;;;;5047076;28;20017;-66
2021/10/26 03:38:07;;;;;;;12.65;4.85;;;11.30;86.70;;;;;;5049665;28;20048;-66
2021/10/26 03:40:33;;;;;;;12.85;4.80;;;11.30;86.80;;;;;;5051855;28;20106;-66
2021/10/26 03:42:59;;;;;;;10.40;4.57;;;11.30;86.50;;;;;;5051672;28;20158;-66
2021/10/26 03:45:25;;;;;;;9.82;4.45;;;11.30;86.40;;;;;;5051929;28;20132;-66
2021/10/26 03:47:50;;;;;;;9.32;4.80;;;11.40;87.40;;;;;;5049045;28;20045;-66
2021/10/26 03:50:17;;;;;;;10.23;4.68;;;11.40;87.50;;;;;;5047776;28;20037;-66
2021/10/26 03:52:43;;;;;;;9.55;4.20;;;11.50;88.00;;;;;;5043046;28;20025;-66
2021/10/26 03:55:11;;;;;;;9.43;4.85;;;11.50;87.50;;;;;;5051461;28;20029;-66
2021/10/26 03:57:37;;;;;;;10.50;4.72;;;11.50;87.60;;;;;;5048466;28;20025;-66
2021/10/26 04:00:04;;;;;;;10.75;4.90;;;11.60;87.40;;;;;;5051325;28;20025;-66
2021/10/26 04:02:31;;;;;;;8.73;4.55;;;11.60;87.00;;;;;;5050018;28;20029;-66
2021/10/26 04:05:01;;;;;;;8.07;4.70;;;11.60;86.60;;;;;;5049222;28;21697;-66
2021/10/26 04:07:27;;;;;;;9.93;4.77;;;11.70;86.40;;;;;;5047510;28;20040;-66
2021/10/26 04:10:04;;;;;;;9.82;4.50;;;11.70;86.20;;;;;;5051430;28;20060;-66
2021/10/26 04:12:30;;;;;;;10.38;4.80;;;11.80;86.00;;;;;;5047764;28;20720;-66
2021/10/26 04:14:57;;;;;;;8.63;4.43;;;11.80;86.00;;;;;;5046697;28;20531;-66
2021/10/26 04:17:24;;;;;;;11.55;4.38;;;11.80;86.20;;;;;;5050633;28;20035;-66
2021/10/26 04:19:50;;;;;;;7.38;4.57;;;11.90;85.90;;;;;;5050519;28;20114;-66
2021/10/26 04:22:21;;;;;;;9.85;4.75;;;11.90;85.80;;;;;;5050455;28;20071;-66
2021/10/26 04:24:48;;;;;;;9.77;4.43;;;11.90;85.70;;;;;;5051195;28;20040;-66
2021/10/26 04:27:14;;;;;;;9.95;4.28;;;11.90;85.60;;;;;;5050106;28;20033;-66
2021/10/26 04:29:42;;;;;;;10.52;4.70;;;11.90;85.40;;;;;;5049240;28;20090;-66
2021/10/26 04:32:09;;;;;;;8.48;4.40;;;11.90;86.30;;;;;;5048256;28;20408;-67
2021/10/26 04:34:36;;;;;;;8.65;4.47;;;11.90;85.20;;;;;;5042674;28;20488;-67
2021/10/26 04:37:02;;;;;;;12.63;5.00;;;11.90;85.20;;;;;;5049603;28;20029;-67
2021/10/26 04:39:28;;;;;;;8.70;4.97;;;11.90;85.20;;;;;;5052247;28;20075;-67
2021/10/26 04:41:54;;;;;;;10.63;5.10;;;11.90;85.10;;;;;;5050333;28;20037;-67
2021/10/26 04:44:20;;;;;;;8.50;4.95;;;12.00;85.20;;;;;;5046335;28;20507;-67
2021/10/26 04:46:46;;;;;;;9.38;4.70;;;12.00;85.20;;;;;;5043017;28;20091;-66
2021/10/26 04:49:12;;;;;;;14.35;4.47;;;12.00;85.20;;;;;;5050036;28;20462;-67
2021/10/26 04:51:37;;;;;;;8.43;5.15;;;12.00;85.00;;;;;;5051463;28;20064;-67
2021/10/26 04:54:03;;;;;;;8.63;4.65;;;12.00;85.00;;;;;;5049719;28;20033;-67
2021/10/26 04:56:29;;;;;;;12.02;5.57;;;12.00;84.90;;;;;;5045776;28;20029;-67
2021/10/26 04:58:55;;;;;;;12.27;5.28;;;12.00;84.90;;;;;;5049863;28;20115;-67
2021/10/26 05:01:20;;;;;;;14.00;5.63;;;12.00;85.30;;;;;;5048430;28;20031;-67
2021/10/26 05:03:46;;;;;;;12.02;5.85;;;12.00;86.00;;;;;;5047241;28;20044;-67
2021/10/26 05:06:12;;;;;;;18.73;6.32;;;11.90;85.80;;;;;;5049242;28;20112;-67
2021/10/26 05:08:38;;;;;;;20.50;5.72;;;11.90;85.50;;;;;;5049395;28;20110;-67
2021/10/26 05:11:03;;;;;;;14.13;5.57;;;11.90;85.80;;;;;;5049604;28;20153;-67
2021/10/26 05:13:31;;;;;;;17.77;6.18;;;11.90;86.20;;;;;;5048369;28;20015;-67
2021/10/26 05:15:58;;;;;;;13.68;6.25;;;11.90;86.20;;;;;;5049633;28;20124;-67
2021/10/26 05:18:24;;;;;;;12.57;5.43;;;11.90;86.40;;;;;;5046659;28;20031;-67
2021/10/26 05:20:51;;;;;;;14.00;5.40;;;11.80;86.20;;;;;;5044936;28;20072;-67
2021/10/26 05:23:18;;;;;;;14.63;5.57;;;11.90;86.20;;;;;;5047129;28;20049;-67
2021/10/26 05:25:50;;;;;;;16.88;6.03;;;11.90;86.20;;;;;;5044814;28;20058;-67
2021/10/26 05:28:16;;;;;;;15.85;5.30;;;11.90;86.10;;;;;;5047841;28;20028;-67
2021/10/26 05:30:41;;;;;;;19.40;6.18;;;11.90;86.00;;;;;;5047259;28;20033;-67
2021/10/26 05:33:08;;;;;;;18.00;6.07;;;12.00;85.90;;;;;;5049236;28;20053;-67
2021/10/26 05:35:34;;;;;;;17.13;5.78;;;12.00;85.80;;;;;;5042832;28;20075;-67
2021/10/26 05:38:00;;;;;;;18.48;5.90;;;12.00;85.90;;;;;;5039719;28;20028;-67
2021/10/26 05:40:26;;;;;;;19.75;5.57;;;12.10;85.80;;;;;;5039297;28;20025;-67
2021/10/26 05:42:52;;;;;;;16.55;5.40;;;12.10;85.70;;;;;;5050051;28;20467;-67
2021/10/26 05:45:18;;;;;;;17.55;6.60;;;12.10;86.00;;;;;;5051202;28;20106;-67
2021/10/26 05:47:45;;;;;;;14.82;5.90;;;12.20;85.90;;;;;;5052450;28;20495;-66
2021/10/26 05:50:11;;;;;;;10.18;4.82;;;12.20;85.80;;;;;;5045020;28;20033;-66
2021/10/26 05:52:38;;;;;;;17.23;5.40;;;12.20;85.80;;;;;;5023067;28;20064;-66
2021/10/26 05:55:05;;;;;;;12.85;5.05;;;12.20;85.70;;;;;;5046569;28;20032;-66
2021/10/26 05:57:33;;;;;;;16.10;5.05;;;12.20;85.60;;;;;;5049458;28;20033;-66
2021/10/26 05:59:59;;;;;;;25.38;6.07;;;12.30;85.90;;;;;;5049148;28;20491;-66
2021/10/26 06:02:25;;;;;;;14.95;6.18;;;12.30;85.90;;;;;;5049525;28;20478;-67
2021/10/26 06:04:52;;;;;;;13.32;5.25;;;12.30;85.80;;;;;;5048204;28;20471;-66
2021/10/26 06:07:18;;;;;;;12.85;5.80;;;12.30;85.80;;;;;;5034405;28;20032;-66
2021/10/26 06:09:43;;;;;;;9.98;5.10;;;12.30;86.00;;;;;;5046317;28;20029;-67
2021/10/26 06:12:16;;;;;;;8.98;4.68;;;12.30;86.10;;;;;;5046142;28;20480;-67
2021/10/26 06:14:44;;;;;;;8.85;4.80;;;12.30;86.10;;;;;;5049544;28;20538;-66
2021/10/26 06:17:09;;;;;;;11.82;5.43;;;12.40;86.60;;;;;;5046752;28;20035;-66
2021/10/26 06:19:35;;;;;;;12.63;5.28;;;12.40;86.60;;;;;;5046746;28;20025;-67
2021/10/26 06:22:01;;;;;;;12.25;5.22;;;12.40;87.20;;;;;;5040773;28;20025;-67
2021/10/26 06:24:27;;;;;;;14.05;5.57;;;12.40;87.00;;;;;;5049078;28;20039;-67
2021/10/26 06:26:52;;;;;;;12.15;5.60;;;12.40;86.80;;;;;;5046847;28;20071;-66
2021/10/26 06:29:19;;;;;;;10.05;4.80;;;12.40;87.10;;;;;;5048794;28;20037;-67
2021/10/26 06:31:45;;;;;;;10.82;5.20;;;12.40;86.90;;;;;;5049335;28;20025;-67
2021/10/26 06:34:11;;;;;;;11.15;6.22;;;12.40;87.80;;;;;;5047970;28;20117;-67
2021/10/26 06:36:38;;;;;;;11.98;5.80;;;12.40;88.30;;;;;;5047273;28;20136;-67
2021/10/26 06:39:04;;;;;;;13.35;6.35;;;12.40;88.40;;;;;;5047863;28;20404;-66
2021/10/26 06:41:30;;;;;;;14.63;6.10;;;12.40;88.50;;;;;;5047650;28;20063;-66
2021/10/26 06:43:56;;;;;;;16.13;6.85;;;12.40;88.90;;;;;;5047875;28;20029;-66
2021/10/26 06:46:22;;;;;;;16.55;7.53;;;12.40;88.50;;;;;;5049184;28;20373;-66
2021/10/26 06:48:48;;;;;;;18.48;7.53;;;12.40;88.70;;;;;;5049163;28;20021;-66
2021/10/26 06:51:14;;;;;;;22.85;7.80;;;12.40;88.60;;;;;;5049122;28;20040;-66
2021/10/26 06:53:40;;;;;;;24.55;7.95;;;12.40;88.90;;;;;;5048641;28;20082;-66
2021/10/26 06:56:13;;;;;;;33.55;8.45;;;12.40;89.10;;;;;;5045888;28;20028;-66
2021/10/26 06:58:39;;;;;;;23.98;8.88;;;12.40;89.10;;;;;;5038802;28;20115;-66
2021/10/26 07:01:07;;;;;;;24.33;8.60;;;12.40;88.80;;;;;;5048307;28;20483;-66
2021/10/26 07:03:37;;;;;;;25.50;8.70;;;12.40;88.60;;;;;;5048720;28;20075;-66
2021/10/26 07:06:04;;;;;;;24.73;8.33;;;12.50;88.40;;;;;;5047189;28;20507;-66
2021/10/26 07:08:30;;;;;;;23.80;9.05;;;12.50;88.20;;;;;;5048562;28;20515;-67
2021/10/26 07:10:58;;;;;;;28.67;8.77;;;12.60;88.00;;;;;;5047118;28;20048;-67
2021/10/26 07:13:25;;;;;;;21.23;7.95;;;12.60;88.00;;;;;;5048592;28;20032;-67
2021/10/26 07:15:52;;;;;;;20.70;7.25;;;12.60;88.00;;;;;;5047896;28;20021;-67
2021/10/26 07:18:18;;;;;;;31.80;8.57;;;12.70;87.80;;;;;;5045315;28;20079;-67
2021/10/26 07:20:43;;;;;;;23.80;8.50;;;12.70;87.60;;;;;;5038714;28;20029;-67
2021/10/26 07:23:09;;;;;;;27.02;8.02;;;12.70;87.30;;;;;;5040003;28;20039;-67
2021/10/26 07:25:35;;;;;;;45.20;8.40;;;12.80;87.30;;;;;;5050373;28;20045;-66
2021/10/26 07:28:01;;;;;;;30.95;8.13;;;12.80;87.20;;;;;;5044886;28;20542;-66
2021/10/26 07:30:29;;;;;;;29.55;8.80;;;12.90;87.10;;;;;;5046227;28;20029;-66
2021/10/26 07:32:56;;;;;;;31.02;8.82;;;12.90;87.20;;;;;;5047101;28;20049;-66
2021/10/26 07:35:28;;;;;;;45.83;10.02;;;13.00;87.00;;;;;;5045006;28;20495;-66
2021/10/26 07:37:54;;;;;;;29.95;8.85;;;13.00;86.80;;;;;;5044214;28;20083;-66
2021/10/26 07:40:20;;;;;;;36.45;8.32;;;13.10;86.60;;;;;;5048384;28;20021;-66
2021/10/26 07:42:46;;;;;;;31.52;8.45;;;13.10;86.40;;;;;;5051984;28;20017;-66
2021/10/26 07:45:12;;;;;;;73.25;8.88;;;13.20;86.50;;;;;;5048443;28;20037;-66
2021/10/26 07:47:38;;;;;;;23.67;8.25;;;13.20;86.30;;;;;;5049176;28;20029;-66
2021/10/26 07:50:06;;;;;;;24.58;7.75;;;13.20;86.10;;;;;;5046753;28;20075;-66
2021/10/26 07:52:32;;;;;;;18.40;7.40;;;13.30;86.10;;;;;;5050022;28;20044;-66
2021/10/26 07:54:58;;;;;;;21.33;8.38;;;13.30;86.30;;;;;;5047323;28;20419;-66
2021/10/26 07:57:25;;;;;;;23.95;8.98;;;13.40;86.50;;;;;;5045228;28;20025;-66
2021/10/26 07:59:52;;;;;;;17.67;7.30;;;13.50;86.60;;;;;;5050184;28;20029;-66
2021/10/26 08:02:20;;;;;;;13.90;6.97;;;13.60;86.40;;;;;;5050779;28;20025;-66
2021/10/26 08:04:47;;;;;;;13.98;7.40;;;13.80;85.90;;;;;;5051461;28;20091;-66
2021/10/26 08:07:16;;;;;;;17.02;7.70;;;13.90;85.20;;;;;;5045407;28;20029;-66
2021/10/26 08:09:53;;;;;;;15.18;8.00;;;14.00;84.80;;;;;;5038915;28;20512;-66
2021/10/26 08:12:20;;;;;;;13.73;7.03;;;14.10;84.40;;;;;;5048212;28;20028;-66
2021/10/26 08:14:46;;;;;;;12.82;6.65;;;14.20;84.10;;;;;;5051855;28;20036;-66
2021/10/26 08:17:12;;;;;;;11.40;6.57;;;14.40;83.60;;;;;;5050134;28;20021;-67
2021/10/26 08:19:38;;;;;;;11.73;6.93;;;14.50;84.10;;;;;;5050401;28;20028;-66
2021/10/26 08:22:10;;;;;;;11.55;6.43;;;14.50;83.40;;;;;;5050016;28;20080;-66
2021/10/26 08:24:37;;;;;;;15.55;6.78;;;14.60;83.10;;;;;;5047111;28;20060;-67
2021/10/26 08:27:07;;;;;;;14.82;6.50;;;14.70;82.80;;;;;;5045795;28;20622;-66
2021/10/26 08:29:47;;;;;;;13.13;7.38;;;14.60;82.80;;;;;;5049426;28;20025;-67
2021/10/26 08:37:29;;;;;;;;;;;14.80;82.90;;;;;;5045282;28;20024;-67
2021/10/26 08:39:55;;;;;;;14.13;6.45;;;14.90;82.80;;;;;;5051029;28;19995;-67
2021/10/26 08:42:21;;;;;;;10.10;5.97;;;15.00;82.10;;;;;;5044021;28;20052;-67
2021/10/26 08:44:49;;;;;;;15.65;6.25;;;15.10;82.30;;;;;;5050506;28;20064;-67
2021/10/26 08:47:16;;;;;;;12.25;5.63;;;15.80;80.70;;;;;;5050918;28;20031;-67
2021/10/26 08:49:46;;;;;;;12.10;6.00;;;15.70;80.20;;;;;;5050651;28;20032;-66
2021/10/26 08:52:13;;;;;;;14.63;6.00;;;16.60;78.10;;;;;;5050007;28;20472;-67
2021/10/26 08:54:39;;;;;;;12.85;5.93;;;17.00;77.80;;;;;;5048875;28;20032;-68
2021/10/26 08:57:05;;;;;;;11.65;5.85;;;18.60;72.80;;;;;;5050262;28;20086;-68
2021/10/26 08:59:31;;;;;;;11.68;5.53;;;20.30;68.40;;;;;;5050193;28;20037;-68
2021/10/26 09:01:59;;;;;;;10.57;6.43;;;22.00;62.50;;;;;;5048455;28;20079;-68
2021/10/26 09:04:33;;;;;;;8.65;4.95;;;23.70;58.90;;;;;;5050152;28;20072;-68
2021/10/26 09:07:05;;;;;;;12.40;5.18;;;25.10;54.30;;;;;;5047522;28;20438;-67
2021/10/26 09:09:35;;;;;;;12.30;4.20;;;25.60;53.80;;;;;;5050561;28;20037;-67
2021/10/26 09:17:47;;;;;;;7.88;5.40;;;28.10;47.50;;;;;;5050833;28;20047;-69
2021/10/26 09:20:22;;;;;;;10.13;5.20;;;29.10;44.30;;;;;;5049498;28;20175;-68
2021/10/26 09:22:55;;;;;;;10.13;6.07;;;29.70;42.50;;;;;;5049427;28;20031;-68
2021/10/26 09:25:31;;;;;;;9.38;5.57;;;30.40;41.60;;;;;;5041953;28;20047;-66
2021/10/26 09:28:18;;;;;;;9.30;5.10;;;30.80;40.80;;;;;;5044632;28;20029;-67
2021/10/26 09:31:08;;;;;;;10.25;4.68;;;31.50;38.10;;;;;;5048141;28;20041;-65
2021/10/26 09:33:37;;;;;;;8.68;4.30;;;31.80;37.60;;;;;;5048008;28;20041;-66
2021/10/26 09:36:24;;;;;;;8.30;3.58;;;31.90;37.50;;;;;;5039184;28;20044;-65
2021/10/26 09:39:18;;;;;;;9.13;4.28;;;32.50;36.30;;;;;;5047626;28;20025;-65
2021/10/26 09:41:55;;;;;;;7.03;4.65;;;33.30;35.00;;;;;;5041395;28;20135;-65
2021/10/26 09:44:25;;;;;;;8.90;2.80;;;33.60;33.30;;;;;;5048971;28;20045;-66
2021/10/26 09:47:06;;;;;;;10.68;4.90;;;31.40;34.90;;;;;;5049617;28;20024;-66
2021/10/26 09:49:36;;;;;;;10.45;5.28;;;30.20;37.70;;;;;;5039014;28;20070;-66
2021/10/26 09:52:17;;;;;;;9.57;4.47;;;29.20;41.10;;;;;;5037788;28;20388;-65
2021/10/26 09:54:57;;;;;;;9.93;3.28;;;29.10;41.30;;;;;;5047257;28;20037;-66
2021/10/26 09:57:38;;;;;;;9.52;3.58;;;28.50;39.90;;;;;;5045338;28;20103;-66
2021/10/26 10:00:06;;;;;;;8.93;3.50;;;28.20;43.00;;;;;;5042189;28;20057;-66
2021/10/26 10:02:32;;;;;;;10.07;3.17;;;27.30;43.40;;;;;;5035876;28;20035;-66
2021/10/26 10:04:59;;;;;;;11.18;2.63;;;26.70;44.10;;;;;;5040897;28;20087;-68
2021/10/26 10:07:36;;;;;;;12.20;2.63;;;25.80;45.10;;;;;;5045950;28;20056;-67
2021/10/26 10:10:09;;;;;;;8.13;2.42;;;25.00;47.00;;;;;;5046581;28;20029;-67
2021/10/26 10:12:36;;;;;;;11.65;3.00;;;24.40;48.80;;;;;;5047769;28;20048;-66
2021/10/26 10:15:05;;;;;;;10.23;2.50;;;24.10;50.40;;;;;;5045511;28;20082;-67
2021/10/26 10:17:33;;;;;;;10.48;2.67;;;23.70;50.90;;;;;;5040229;28;20031;-67
2021/10/26 10:20:00;;;;;;;8.85;2.50;;;23.60;51.30;;;;;;5048322;28;20029;-67
2021/10/26 10:22:30;;;;;;;9.25;2.50;;;23.30;52.30;;;;;;5046246;28;20030;-67
2021/10/26 10:24:59;;;;;;;9.38;2.60;;;23.40;52.40;;;;;;5047016;28;20044;-67
2021/10/26 10:27:32;;;;;;;11.50;2.53;;;23.20;52.80;;;;;;5049105;28;20048;-67
2021/10/26 10:30:00;;;;;;;11.10;2.78;;;23.30;52.60;;;;;;5043527;28;20082;-67
2021/10/26 10:32:29;;;;;;;10.80;2.67;;;22.80;53.10;;;;;;5043419;28;20025;-66
2021/10/26 10:34:56;;;;;;;8.52;2.45;;;22.40;54.30;;;;;;5042049;28;20048;-67
2021/10/26 10:37:27;;;;;;;12.32;2.83;;;22.10;55.20;;;;;;5049672;28;20025;-67
2021/10/26 10:40:02;;;;;;;10.18;2.97;;;21.70;56.70;;;;;;5049536;28;20025;-67
2021/10/26 10:42:32;;;;;;;10.02;2.88;;;21.30;57.80;;;;;;5047867;28;20369;-67
2021/10/26 10:45:20;;;;;;;12.68;3.20;;;21.00;58.70;;;;;;5046422;28;20033;-66
2021/10/26 10:47:47;;;;;;;11.77;3.25;;;20.70;60.00;;;;;;5042676;28;20029;-67
2021/10/26 10:50:32;;;;;;;10.25;2.75;;;21.50;60.20;;;;;;5046803;28;20030;-66
2021/10/26 10:53:12;;;;;;;13.45;3.38;;;21.60;57.90;;;;;;5046729;28;20036;-67
2021/10/26 10:56:02;;;;;;;8.73;2.50;;;21.40;58.80;;;;;;5046647;28;20044;-66
2021/10/26 10:58:42;;;;;;;12.27;2.80;;;21.50;58.90;;;;;;5031334;28;20116;-66
2021/10/26 11:01:22;;;;;;;11.95;3.00;;;21.40;59.00;;;;;;5045956;28;20454;-66
2021/10/26 11:03:49;;;;;;;11.45;2.95;;;23.40;56.80;;;;;;5045658;28;20029;-66
2021/10/26 11:06:40;;;;;;;14.13;3.20;;;24.20;54.40;;;;;;5046812;28;20037;-66
2021/10/26 11:09:34;;;;;;;8.20;2.40;;;27.50;47.00;;;;;;5048367;28;20041;-66
2021/10/26 11:12:20;;;;;;;10.85;2.40;;;30.20;41.00;;;;;;5051626;28;20025;-66
2021/10/26 11:14:55;;;;;;;7.65;2.28;;;27.40;42.40;;;;;;5052272;28;20025;-66
2021/10/26 11:17:37;;;;;;;9.18;2.40;;;26.40;44.70;;;;;;5044585;28;20097;-66
2021/10/26 11:20:09;;;;;;;8.43;2.28;;;26.20;45.80;;;;;;5043409;28;20062;-66
2021/10/26 11:22:51;;;;;;;8.85;2.10;;;25.80;46.20;;;;;;5050249;28;20096;-66
2021/10/26 11:25:22;;;;;;;12.43;2.15;;;25.20;47.70;;;;;;5048218;28;20119;-67
2021/10/26 11:27:49;;;;;;;8.45;2.15;;;24.40;48.30;;;;;;5049993;28;20383;-66
2021/10/26 11:30:47;;;;;;;10.50;2.00;;;24.10;49.90;;;;;;5046216;28;20032;-66
2021/10/26 11:33:13;;;;;;;8.93;1.80;;;24.60;49.40;;;;;;4971506;28;20051;-66
2021/10/26 11:36:00;;;;;;;11.88;1.77;;;26.30;45.30;;;;;;4969248;28;20042;-66
2021/10/26 11:38:28;;;;;;;7.93;1.73;;;25.50;45.90;;;;;;4965817;28;20082;-66
2021/10/26 11:41:01;;;;;;;7.43;1.75;;;25.80;45.90;;;;;;4966295;28;20038;-66
2021/10/26 11:43:40;;;;;;;8.00;1.67;;;26.40;44.70;;;;;;4968770;28;20046;-67
2021/10/26 11:46:10;;;;;;;7.85;1.75;;;29.20;42.10;;;;;;4969586;28;20641;-66
2021/10/26 11:48:51;;;;;;;9.20;1.70;;;28.30;41.20;;;;;;4975409;28;20077;-66
2021/10/26 11:51:27;;;;;;;9.38;1.75;;;27.40;43.10;;;;;;4971477;28;20391;-67
2021/10/26 11:54:00;;;;;;;7.20;1.65;;;26.40;42.60;;;;;;4968061;28;20034;-66
2021/10/26 11:56:41;;;;;;;10.15;2.00;;;26.80;43.10;;;;;;4969257;28;20117;-66
2021/10/26 11:59:11;;;;;;;8.38;1.60;;;26.00;44.00;;;;;;4971050;28;20246;-66
2021/10/26 12:01:47;;;;;;;7.97;1.67;;;25.30;46.00;;;;;;4970695;28;20057;-66
2021/10/26 12:04:47;;;;;;;6.40;1.67;;;24.70;46.10;;;;;;4968565;28;20062;-67
2021/10/26 12:07:15;;;;;;;7.97;1.67;;;24.20;47.70;;;;;;4892911;29;20064;-67
2021/10/26 12:09:45;;;;;;;6.15;1.42;;;23.60;49.10;;;;;;4929749;28;20360;-67
2021/10/26 12:12:29;;;;;;;8.20;1.50;;;23.10;50.40;;;;;;4948308;28;20024;-66
2021/10/26 12:14:57;;;;;;;10.15;1.80;;;22.70;50.90;;;;;;4952551;28;20592;-66
2021/10/26 12:17:30;;;;;;;8.00;1.50;;;24.40;49.70;;;;;;4952529;28;20077;-67
2021/10/26 12:20:20;;;;;;;8.82;1.60;;;23.60;49.30;;;;;;4949697;28;20031;-67
2021/10/26 12:22:46;;;;;;;;;;;23.30;50.40;;;;;;4969251;28;20438;-67
2021/10/26 12:25:23;;;;;;;7.90;1.58;;;23.00;51.10;;;;;;4950690;28;20420;-67
2021/10/26 12:27:58;;;;;;;7.80;1.40;;;23.20;51.50;;;;;;4948111;28;20146;-67
2021/10/26 12:30:40;;;;;;;8.40;1.73;;;23.60;50.40;;;;;;4954342;28;20051;-67
2021/10/26 12:33:16;;;;;;;7.88;1.60;;;24.50;49.40;;;;;;4948387;29;20134;-67
2021/10/26 12:35:47;;;;;;;5.72;1.40;;;24.40;47.50;;;;;;4950772;28;20403;-67
2021/10/26 12:38:13;;;;;;;11.45;1.90;;;24.10;48.30;;;;;;4952519;28;20041;-67
2021/10/26 12:40:42;;;;;;;8.43;1.50;;;23.70;48.70;;;;;;4952374;28;20043;-67
2021/10/26 12:43:10;;;;;;;10.38;1.90;;;23.30;49.30;;;;;;5009746;28;20033;-67
2021/10/26 12:45:40;;;;;;;16.00;6.43;;;23.20;49.80;;;;;;5051733;28;20044;-67
2021/10/26 12:48:08;;;;;;;11.45;2.95;;;23.60;49.40;;;;;;5048429;28;20102;-67
2021/10/26 12:50:52;;;;;;;8.50;1.65;;;23.70;49.40;;;;;;5045450;28;20488;-67
2021/10/26 12:53:19;;;;;;;8.93;2.00;;;23.50;50.00;;;;;;5050128;28;20013;-67
2021/10/26 12:55:49;;;;;;;8.13;1.50;;;23.20;51.00;;;;;;5050717;28;20021;-67
2021/10/26 12:58:36;;;;;;;9.80;1.73;;;22.90;51.40;;;;;;5046499;28;20017;-67
2021/10/26 13:01:28;;;;;;;6.35;1.50;;;22.60;51.90;;;;;;5050960;28;20052;-67